createdAt,value
2023-04-17T00:00:32.481Z,10.93
2023-04-17T00:03:01.329Z,10.45
2023-04-17T00:05:28.730Z,10.90
2023-04-17T00:07:55.367Z,11.13
2023-04-17T00:10:21.983Z,10.93
2023-04-17T00:12:48.619Z,11.52
2023-04-17T00:15:15.263Z,11.20
2023-04-17T00:17:41.897Z,10.43
2023-04-17T00:20:12.368Z,11.13
2023-04-17T00:22:39.422Z,11.45
2023-04-17T00:25:06.613Z,11.23
2023-04-17T00:27:33.292Z,11.23
2023-04-17T00:29:59.807Z,11.70
2023-04-17T00:32:26.589Z,10.88
2023-04-17T00:34:55.603Z,12.13
2023-04-17T00:37:22.520Z,10.50
2023-04-17T00:39:49.123Z,11.07
2023-04-17T00:42:15.717Z,10.82
2023-04-17T00:44:42.332Z,12.32
2023-04-17T00:47:08.963Z,11.95
2023-04-17T00:49:36.152Z,11.50
2023-04-17T00:52:03.875Z,11.20
2023-04-17T00:54:31.658Z,12.88
2023-04-17T00:56:59.624Z,11.73
2023-04-17T00:59:28.169Z,12.02
2023-04-17T01:01:54.796Z,11.80
2023-04-17T01:04:21.708Z,11.50
2023-04-17T01:06:48.548Z,11.73
2023-04-17T01:09:15.441Z,11.57
2023-04-17T01:11:42.021Z,12.07
2023-04-17T01:14:08.542Z,12.15
2023-04-17T01:16:35.427Z,10.98
2023-04-17T01:19:02.078Z,11.95
2023-04-17T01:21:28.664Z,12.45
2023-04-17T01:23:55.895Z,12.82
2023-04-17T01:26:30.809Z,12.52
2023-04-17T01:28:58.478Z,11.75
2023-04-17T01:31:27.505Z,11.23
2023-04-17T01:33:55.298Z,11.93
2023-04-17T01:36:22.101Z,11.95
2023-04-17T01:38:48.652Z,11.50
2023-04-17T01:41:15.331Z,11.73
2023-04-17T01:43:44.724Z,11.82
2023-04-17T01:46:11.850Z,12.07
2023-04-17T01:48:38.975Z,11.60
2023-04-17T01:51:06.325Z,12.15
2023-04-17T01:53:34.058Z,11.50
2023-04-17T01:56:01.652Z,11.65
2023-04-17T01:58:29.313Z,13.07
2023-04-17T02:00:55.856Z,13.23
2023-04-17T02:03:24.411Z,12.20
2023-04-17T02:05:53.562Z,13.52
2023-04-17T02:08:20.562Z,12.60
2023-04-17T02:10:47.082Z,12.43
2023-04-17T02:13:13.824Z,12.43
2023-04-17T02:15:41.516Z,13.48
2023-04-17T02:18:09.253Z,12.40
2023-04-17T02:20:37.131Z,12.95
2023-04-17T02:23:05.575Z,12.48
2023-04-17T02:25:32.928Z,12.07
2023-04-17T02:27:59.558Z,13.05
2023-04-17T02:30:27.611Z,13.55
2023-04-17T02:32:57.129Z,12.32
2023-04-17T02:35:30.774Z,12.73
2023-04-17T02:37:57.972Z,12.23
2023-04-17T02:40:24.538Z,12.23
2023-04-17T02:42:56.699Z,12.35
2023-04-17T02:45:23.286Z,12.57
2023-04-17T02:47:50.030Z,11.52
2023-04-17T02:50:16.940Z,12.65
2023-04-17T02:53:09.609Z,11.77
2023-04-17T02:55:36.362Z,12.25
2023-04-17T02:58:03.139Z,12.27
2023-04-17T03:00:29.724Z,11.80
2023-04-17T03:02:56.659Z,13.70
2023-04-17T03:05:23.461Z,13.05
2023-04-17T03:07:52.119Z,12.60
2023-04-17T03:10:19.179Z,12.63
2023-04-17T03:12:45.843Z,11.52
2023-04-17T03:15:13.155Z,12.45
2023-04-17T03:17:39.966Z,13.50
2023-04-17T03:20:07.841Z,13.23
2023-04-17T03:22:35.145Z,12.77
2023-04-17T03:25:02.482Z,12.70
2023-04-17T03:27:35.777Z,12.57
2023-04-17T03:30:04.321Z,13.25
2023-04-17T03:32:31.456Z,11.88
2023-04-17T03:34:57.999Z,14.30
2023-04-17T03:37:24.603Z,14.18
2023-04-17T03:39:51.311Z,13.70
2023-04-17T03:42:17.915Z,13.40
2023-04-17T03:44:44.430Z,14.23
2023-04-17T03:47:11.457Z,13.25
2023-04-17T03:49:40.256Z,14.70
2023-04-17T03:52:06.920Z,14.82
2023-04-17T03:54:35.692Z,13.73
2023-04-17T03:57:04.483Z,13.77
2023-04-17T03:59:31.884Z,14.00
2023-04-17T04:01:58.801Z,14.55
2023-04-17T04:04:27.623Z,14.25
2023-04-17T04:07:05.110Z,13.80
2023-04-17T04:09:32.176Z,13.95
2023-04-17T04:11:59.596Z,15.65
2023-04-17T04:14:27.270Z,13.70
2023-04-17T04:16:54.142Z,15.18
2023-04-17T04:19:20.658Z,15.05
2023-04-17T04:21:47.316Z,15.50
2023-04-17T04:24:15.009Z,14.18
2023-04-17T04:26:43.105Z,14.60
2023-04-17T04:29:11.665Z,15.60
2023-04-17T04:31:50.886Z,14.52
2023-04-17T04:34:21.475Z,15.00
2023-04-17T04:36:51.107Z,14.90
2023-04-17T04:39:37.803Z,15.82
2023-04-17T04:42:06.048Z,13.85
2023-04-17T04:44:43.382Z,15.38
2023-04-17T04:47:10.401Z,15.23
2023-04-17T04:49:37.139Z,16.20
2023-04-17T04:52:03.718Z,15.35
2023-04-17T04:54:33.258Z,14.95
2023-04-17T04:57:01.361Z,14.98
2023-04-17T04:59:28.342Z,15.40
2023-04-17T05:02:07.431Z,15.60
2023-04-17T05:04:34.267Z,15.57
2023-04-17T05:07:01.531Z,14.88
2023-04-17T05:09:29.288Z,14.98
2023-04-17T05:11:58.062Z,15.68
2023-04-17T05:14:24.614Z,16.20
2023-04-17T05:16:51.384Z,16.98
2023-04-17T05:19:18.901Z,15.75
2023-04-17T05:21:59.308Z,16.40
2023-04-17T05:24:25.999Z,15.30
2023-04-17T05:26:53.553Z,14.70
2023-04-17T05:29:20.232Z,15.77
2023-04-17T05:31:46.918Z,14.32
2023-04-17T05:34:26.511Z,15.77
2023-04-17T05:36:53.797Z,14.85
2023-04-17T05:39:20.317Z,14.98
2023-04-17T05:41:46.878Z,14.70
2023-04-17T05:44:13.440Z,16.15
2023-04-17T05:46:40.072Z,16.75
2023-04-17T05:49:06.615Z,15.52
2023-04-17T05:51:33.255Z,15.00
2023-04-17T05:53:59.826Z,14.38
2023-04-17T05:56:26.510Z,16.75
2023-04-17T05:58:53.157Z,15.40
2023-04-17T06:01:22.341Z,14.30
2023-04-17T06:03:52.020Z,15.35
2023-04-17T06:06:23.216Z,15.18
2023-04-17T06:08:52.443Z,15.77
2023-04-17T06:11:21.613Z,15.05
2023-04-17T06:13:48.379Z,15.25
2023-04-17T06:16:16.887Z,16.20
2023-04-17T06:18:45.818Z,16.35
2023-04-17T06:21:12.452Z,15.93
2023-04-17T06:23:38.967Z,16.15
2023-04-17T06:26:05.637Z,14.98
2023-04-17T06:28:32.216Z,16.20
2023-04-17T06:30:59.811Z,17.40
2023-04-17T06:33:26.859Z,16.75
2023-04-17T06:35:54.492Z,15.50
2023-04-17T06:38:34.966Z,14.73
2023-04-17T06:41:01.631Z,16.80
2023-04-17T06:43:28.266Z,16.25
2023-04-17T06:45:54.929Z,16.83
2023-04-17T06:48:21.496Z,15.43
2023-04-17T06:50:48.415Z,15.65
2023-04-17T06:53:15.095Z,16.65
2023-04-17T06:55:41.587Z,15.55
2023-04-17T06:58:08.983Z,15.07
2023-04-17T07:00:35.537Z,16.17
2023-04-17T07:03:02.411Z,15.90
2023-04-17T07:05:29.038Z,16.25
2023-04-17T07:07:55.644Z,16.27
2023-04-17T07:10:22.261Z,16.95
2023-04-17T07:12:49.019Z,16.30
2023-04-17T07:15:16.374Z,15.43
2023-04-17T07:17:43.085Z,16.42
2023-04-17T07:20:10.009Z,16.38
2023-04-17T07:22:36.711Z,18.00
2023-04-17T07:25:04.475Z,17.38
2023-04-17T07:27:31.067Z,15.60
2023-04-17T07:29:57.740Z,16.58
2023-04-17T07:32:24.681Z,16.83
2023-04-17T07:34:51.482Z,17.42
2023-04-17T07:37:18.162Z,15.35
2023-04-17T07:39:45.228Z,15.98
2023-04-17T07:42:11.829Z,15.48
2023-04-17T07:44:39.123Z,15.88
2023-04-17T07:47:05.852Z,15.45
2023-04-17T07:49:32.493Z,14.70
2023-04-17T07:51:59.006Z,16.65
2023-04-17T07:54:25.573Z,14.43
2023-04-17T07:56:52.481Z,15.27
2023-04-17T07:59:18.963Z,15.88
2023-04-17T08:01:45.680Z,16.08
2023-04-17T08:04:13.172Z,15.05
2023-04-17T08:06:40.067Z,15.40
2023-04-17T08:09:07.070Z,15.02
2023-04-17T08:11:42.774Z,16.27
2023-04-17T08:14:17.330Z,15.27
2023-04-17T08:16:43.824Z,15.32
2023-04-17T08:19:10.661Z,15.73
2023-04-17T08:21:37.593Z,15.68
2023-04-17T08:24:04.442Z,14.45
2023-04-17T08:26:31.413Z,15.07
2023-04-17T08:29:01.509Z,13.93
2023-04-17T08:31:28.846Z,14.75
2023-04-17T08:34:02.806Z,12.88
2023-04-17T08:36:40.198Z,13.05
2023-04-17T08:39:07.106Z,11.77
2023-04-17T08:41:42.859Z,13.73
2023-04-17T08:44:10.144Z,11.93
2023-04-17T08:46:37.421Z,11.65
2023-04-17T08:49:04.341Z,12.40
2023-04-17T08:51:31.679Z,11.70
2023-04-17T08:53:58.339Z,11.13
2023-04-17T08:56:24.855Z,11.45
2023-04-17T08:58:51.490Z,11.40
2023-04-17T09:01:20.354Z,11.57
2023-04-17T09:03:49.049Z,10.82
2023-04-17T09:06:16.102Z,10.32
2023-04-17T09:09:00.595Z,10.02
2023-04-17T09:11:28.030Z,10.93
2023-04-17T09:13:54.593Z,10.82
2023-04-17T09:16:21.224Z,10.60
2023-04-17T09:18:48.473Z,10.20
2023-04-17T09:21:18.581Z,9.30
2023-04-17T09:23:50.711Z,11.25
2023-04-17T09:26:20.831Z,10.00
2023-04-17T09:29:10.886Z,10.73
2023-04-17T09:31:39.760Z,9.90
2023-04-17T09:34:13.484Z,10.32
2023-04-17T09:36:42.664Z,10.02
2023-04-17T09:39:23.675Z,9.95
2023-04-17T09:41:51.162Z,7.65
2023-04-17T09:44:28.364Z,8.85
2023-04-17T09:46:56.241Z,9.18
2023-04-17T09:49:37.939Z,8.63
2023-04-17T09:52:05.538Z,9.95
2023-04-17T09:54:33.167Z,8.85
2023-04-17T09:57:03.960Z,9.15
2023-04-17T09:59:30.888Z,8.57
2023-04-17T10:01:57.945Z,8.77
2023-04-17T10:04:24.770Z,8.82
2023-04-17T10:06:51.438Z,10.00
2023-04-17T10:09:17.988Z,8.95
2023-04-17T10:11:46.171Z,7.75
2023-04-17T10:14:24.495Z,8.18
2023-04-17T10:16:51.493Z,8.40
2023-04-17T10:19:32.148Z,7.70
2023-04-17T10:22:19.788Z,7.03
2023-04-17T10:24:49.269Z,7.28
2023-04-17T10:27:42.558Z,8.90
2023-04-17T10:30:12.836Z,7.15
2023-04-17T10:32:46.746Z,8.13
2023-04-17T10:35:16.583Z,7.35
2023-04-17T10:37:52.371Z,7.07
2023-04-17T10:40:23.218Z,5.88
2023-04-17T10:43:20.238Z,6.28
2023-04-17T10:46:02.172Z,7.43
2023-04-17T10:48:36.708Z,6.75
2023-04-17T10:51:26.247Z,7.70
2023-04-17T10:53:58.056Z,6.38
2023-04-17T10:56:30.604Z,6.03
2023-04-17T10:59:01.567Z,6.78
2023-04-17T11:01:40.375Z,7.32
2023-04-17T11:04:08.253Z,7.07
2023-04-17T11:06:41.984Z,6.50
2023-04-17T11:09:10.409Z,5.68
2023-04-17T11:11:44.601Z,5.90
2023-04-17T11:14:17.476Z,6.15
2023-04-17T11:16:45.924Z,5.90
2023-04-17T11:19:18.188Z,4.97
2023-04-17T11:21:50.845Z,4.93
2023-04-17T11:24:27.166Z,4.35
2023-04-17T11:26:54.791Z,4.65
2023-04-17T11:29:22.936Z,4.68
2023-04-17T11:31:52.147Z,4.47
2023-04-17T11:34:19.644Z,4.38
2023-04-17T11:36:54.230Z,5.13
2023-04-17T11:39:21.714Z,4.57
2023-04-17T11:41:49.408Z,3.72
2023-04-17T11:44:17.991Z,4.35
2023-04-17T11:46:55.077Z,5.07
2023-04-17T11:49:29.691Z,4.80
2023-04-17T11:51:59.100Z,4.40
2023-04-17T11:54:27.484Z,4.88
2023-04-17T11:57:09.249Z,5.03
2023-04-17T11:59:38.051Z,5.30
2023-04-17T12:02:07.167Z,5.78
2023-04-17T12:04:35.495Z,5.18
2023-04-17T12:07:03.754Z,6.22
2023-04-17T12:09:31.793Z,6.07
2023-04-17T12:11:59.436Z,5.85
2023-04-17T12:14:26.661Z,5.90
2023-04-17T12:16:53.454Z,5.38
2023-04-17T12:19:20.036Z,6.18
2023-04-17T12:21:49.884Z,5.72
2023-04-17T12:24:18.052Z,5.90
2023-04-17T12:26:49.308Z,5.63
2023-04-17T12:29:16.729Z,5.93
2023-04-17T12:31:44.679Z,5.53
2023-04-17T12:34:11.608Z,5.55
2023-04-17T12:36:38.643Z,6.22
2023-04-17T12:39:05.245Z,5.93
2023-04-17T12:41:31.875Z,5.65
2023-04-17T12:44:01.711Z,6.60
2023-04-17T12:46:28.568Z,6.05
2023-04-17T12:49:00.923Z,5.90
2023-04-17T12:51:28.189Z,6.00
2023-04-17T12:53:55.564Z,5.30
2023-04-17T12:56:22.425Z,5.35
2023-04-17T12:58:49.460Z,5.75
2023-04-17T13:01:16.168Z,5.85
2023-04-17T13:03:42.844Z,5.80
2023-04-17T13:06:09.483Z,4.82
2023-04-17T13:08:36.249Z,4.78
2023-04-17T13:11:03.861Z,5.35
2023-04-17T13:13:30.581Z,4.90
2023-04-17T13:15:57.255Z,4.85
2023-04-17T13:18:23.947Z,4.72
2023-04-17T13:20:50.667Z,4.57
2023-04-17T13:23:17.449Z,3.92
2023-04-17T13:25:44.010Z,4.82
2023-04-17T13:28:10.853Z,5.10
2023-04-17T13:30:37.708Z,4.95
2023-04-17T13:33:04.480Z,5.25
2023-04-17T13:35:31.265Z,5.20
2023-04-17T13:38:00.844Z,5.68
2023-04-17T13:40:28.181Z,5.13
2023-04-17T13:42:54.802Z,4.65
2023-04-17T13:45:21.703Z,5.97
2023-04-17T13:47:48.433Z,4.82
2023-04-17T13:50:15.048Z,5.07
2023-04-17T13:52:41.541Z,4.82
2023-04-17T13:55:11.706Z,5.25
2023-04-17T13:57:38.558Z,4.65
2023-04-17T14:00:06.269Z,5.55
2023-04-17T14:02:33.288Z,4.53
2023-04-17T14:05:00.212Z,5.68
2023-04-17T14:07:27.426Z,5.13
2023-04-17T14:09:54.129Z,5.13
2023-04-17T14:12:21.644Z,5.10
2023-04-17T14:14:48.365Z,5.20
2023-04-17T14:17:14.960Z,5.22
2023-04-17T14:19:41.561Z,5.05
2023-04-17T14:22:08.231Z,5.43
2023-04-17T14:24:34.711Z,5.45
2023-04-17T14:27:01.788Z,5.75
2023-04-17T14:29:28.634Z,5.63
2023-04-17T14:31:55.377Z,4.65
2023-04-17T14:34:22.169Z,5.47
2023-04-17T14:36:48.813Z,5.43
2023-04-17T14:39:15.580Z,4.97
2023-04-17T14:41:42.419Z,4.85
2023-04-17T14:44:08.953Z,5.68
2023-04-17T14:46:35.895Z,4.75
2023-04-17T14:49:02.569Z,4.85
2023-04-17T14:51:30.639Z,4.78
2023-04-17T14:53:57.726Z,4.72
2023-04-17T14:56:24.357Z,4.85
2023-04-17T14:58:50.954Z,4.75
2023-04-17T15:01:17.764Z,5.20
2023-04-17T15:03:48.244Z,4.07
2023-04-17T15:06:16.518Z,4.60
2023-04-17T15:08:43.130Z,4.70
2023-04-17T15:11:10.308Z,5.50
2023-04-17T15:13:36.864Z,4.43
2023-04-17T15:16:03.698Z,4.40
2023-04-17T15:18:30.520Z,4.63
2023-04-17T15:20:57.109Z,4.97
2023-04-17T15:23:25.296Z,5.20
2023-04-17T15:25:54.170Z,5.60
2023-04-17T15:28:21.321Z,5.05
2023-04-17T15:30:47.950Z,5.05
2023-04-17T15:33:14.640Z,5.38
2023-04-17T15:35:41.357Z,5.20
2023-04-17T15:38:07.921Z,5.07
2023-04-17T15:40:34.466Z,5.45
2023-04-17T15:43:01.616Z,5.18
2023-04-17T15:45:28.177Z,4.70
2023-04-17T15:47:55.054Z,5.07
2023-04-17T15:50:22.035Z,5.07
2023-04-17T15:52:48.598Z,4.18
2023-04-17T15:55:15.389Z,4.53
2023-04-17T15:57:43.223Z,4.97
2023-04-17T16:00:10.582Z,5.40
2023-04-17T16:02:37.342Z,5.13
2023-04-17T16:05:04.426Z,4.95
2023-04-17T16:07:32.007Z,5.38
2023-04-17T16:09:58.626Z,5.30
2023-04-17T16:12:25.181Z,5.65
2023-04-17T16:14:51.782Z,4.18
2023-04-17T16:17:18.327Z,5.15
2023-04-17T16:19:45.182Z,4.75
2023-04-17T16:22:11.669Z,5.00
2023-04-17T16:24:38.279Z,4.82
2023-04-17T16:27:06.130Z,4.97
2023-04-17T16:29:32.904Z,4.45
2023-04-17T16:31:59.739Z,4.13
2023-04-17T16:34:26.429Z,4.65
2023-04-17T16:36:53.018Z,4.75
2023-04-17T16:39:19.571Z,4.60
2023-04-17T16:41:46.056Z,5.22
2023-04-17T16:44:13.015Z,4.45
2023-04-17T16:47:05.088Z,4.95
2023-04-17T16:49:26.433Z,5.32
2023-04-17T16:51:53.191Z,4.97
2023-04-17T16:54:21.475Z,5.15
2023-04-17T16:56:48.489Z,5.30
2023-04-17T16:59:15.746Z,5.43
2023-04-17T17:01:42.385Z,4.78
2023-04-17T17:04:09.098Z,4.40
2023-04-17T17:06:35.664Z,4.75
2023-04-17T17:09:02.234Z,5.07
2023-04-17T17:11:28.733Z,5.35
2023-04-17T17:13:56.049Z,5.10
2023-04-17T17:16:22.707Z,6.57
2023-04-17T17:18:49.413Z,5.18
2023-04-17T17:21:15.984Z,5.72
2023-04-17T17:23:42.722Z,5.90
2023-04-17T17:26:09.318Z,6.28
2023-04-17T17:28:36.353Z,5.57
2023-04-17T17:31:05.264Z,5.55
2023-04-17T17:33:32.231Z,5.40
2023-04-17T17:35:59.339Z,5.70
2023-04-17T17:38:30.765Z,5.80
2023-04-17T17:40:57.485Z,5.65
2023-04-17T17:43:24.386Z,5.88
2023-04-17T17:45:50.992Z,5.70
2023-04-17T17:48:18.193Z,5.50
2023-04-17T17:50:44.793Z,5.80
2023-04-17T17:53:12.825Z,5.97
2023-04-17T17:55:39.813Z,5.57
2023-04-17T17:58:07.944Z,4.95
2023-04-17T18:00:35.840Z,5.20
2023-04-17T18:03:02.584Z,5.25
2023-04-17T18:05:29.197Z,5.15
2023-04-17T18:07:55.716Z,5.15
2023-04-17T18:10:22.305Z,4.82
2023-04-17T18:12:49.700Z,5.43
2023-04-17T18:15:16.557Z,4.47
2023-04-17T18:17:43.174Z,5.53
2023-04-17T18:20:10.369Z,6.07
2023-04-17T18:22:38.254Z,5.43
2023-04-17T18:25:08.176Z,5.75
2023-04-17T18:27:37.423Z,5.35
2023-04-17T18:30:08.444Z,5.63
2023-04-17T18:32:35.914Z,5.00
2023-04-17T18:35:02.835Z,5.63
2023-04-17T18:37:29.602Z,5.43
2023-04-17T18:39:56.133Z,6.03
2023-04-17T18:42:22.927Z,4.97
2023-04-17T18:44:49.857Z,5.47
2023-04-17T18:47:16.716Z,5.10
2023-04-17T18:49:43.409Z,6.07
2023-04-17T18:52:10.160Z,6.57
2023-04-17T18:54:36.710Z,5.85
2023-04-17T18:57:03.328Z,5.50
2023-04-17T18:59:30.178Z,6.72
2023-04-17T19:01:56.790Z,6.18
2023-04-17T19:04:23.431Z,6.75
2023-04-17T19:06:50.060Z,6.95
2023-04-17T19:09:16.755Z,6.03
2023-04-17T19:11:43.402Z,6.63
2023-04-17T19:14:09.922Z,6.57
2023-04-17T19:16:36.543Z,6.47
2023-04-17T19:19:03.096Z,7.00
2023-04-17T19:21:31.563Z,6.43
2023-04-17T19:23:58.179Z,6.55
2023-04-17T19:26:24.729Z,6.80
2023-04-17T19:28:51.192Z,6.75
2023-04-17T19:31:17.762Z,6.20
2023-04-17T19:33:44.295Z,6.97
2023-04-17T19:36:10.858Z,6.53
2023-04-17T19:38:37.391Z,6.05
2023-04-17T19:41:15.053Z,6.43
2023-04-17T19:43:42.518Z,6.80
2023-04-17T19:46:09.518Z,6.38
2023-04-17T19:48:37.031Z,6.68
2023-04-17T19:51:06.586Z,6.35
2023-04-17T19:53:38.266Z,6.45
2023-04-17T19:56:08.302Z,5.93
2023-04-17T19:58:35.934Z,6.05
2023-04-17T20:01:03.434Z,6.95
2023-04-17T20:03:31.611Z,6.35
2023-04-17T20:05:58.972Z,6.18
2023-04-17T20:08:26.053Z,6.80
2023-04-17T20:10:52.613Z,6.15
2023-04-17T20:13:19.174Z,6.00
2023-04-17T20:15:45.716Z,5.93
2023-04-17T20:18:12.435Z,6.25
2023-04-17T20:20:39.278Z,6.38
2023-04-17T20:23:06.114Z,6.30
2023-04-17T20:25:32.831Z,5.78
2023-04-17T20:27:59.453Z,5.97
2023-04-17T20:30:26.081Z,6.43
2023-04-17T20:32:52.850Z,5.63
2023-04-17T20:35:23.474Z,6.55
2023-04-17T20:37:51.586Z,6.18
2023-04-17T20:40:18.346Z,5.70
2023-04-17T20:42:46.258Z,6.60
2023-04-17T20:45:12.887Z,5.88
2023-04-17T20:47:49.316Z,6.43
2023-04-17T20:50:22.385Z,6.03
2023-04-17T20:52:48.948Z,6.07
2023-04-17T20:55:18.103Z,6.28
2023-04-17T20:57:44.895Z,6.50
2023-04-17T21:00:12.164Z,6.55
2023-04-17T21:02:38.980Z,6.13
2023-04-17T21:05:07.805Z,6.47
2023-04-17T21:07:34.479Z,6.65
2023-04-17T21:10:01.397Z,6.55
2023-04-17T21:12:28.073Z,5.80
2023-04-17T21:14:54.723Z,5.57
2023-04-17T21:17:21.355Z,6.90
2023-04-17T21:19:47.939Z,5.72
2023-04-17T21:22:14.584Z,6.13
2023-04-17T21:24:41.250Z,6.40
2023-04-17T21:27:07.838Z,5.38
2023-04-17T21:29:34.424Z,6.20
2023-04-17T21:32:01.077Z,6.40
2023-04-17T21:34:27.853Z,6.28
2023-04-17T21:36:54.445Z,5.85
2023-04-17T21:39:21.956Z,5.75
2023-04-17T21:41:48.581Z,6.35
2023-04-17T21:44:15.548Z,6.07
2023-04-17T21:46:46.041Z,5.88
2023-04-17T21:49:13.157Z,5.13
2023-04-17T21:51:39.803Z,5.88
2023-04-17T21:54:07.929Z,4.90
2023-04-17T21:56:34.448Z,5.45
2023-04-17T21:59:01.227Z,5.43
2023-04-17T22:01:27.879Z,5.88
2023-04-17T22:03:54.535Z,5.85
2023-04-17T22:06:21.228Z,5.97
2023-04-17T22:08:47.779Z,6.28
2023-04-17T22:11:14.332Z,5.32
2023-04-17T22:13:40.885Z,5.93
2023-04-17T22:16:07.470Z,5.38
2023-04-17T22:18:34.099Z,5.43
2023-04-17T22:21:00.608Z,5.35
2023-04-17T22:23:27.209Z,5.15
2023-04-17T22:25:53.701Z,5.60
2023-04-17T22:28:20.370Z,4.50
2023-04-17T22:30:50.681Z,4.45
2023-04-17T22:33:17.257Z,5.57
2023-04-17T22:35:43.755Z,5.57
2023-04-17T22:38:10.894Z,5.10
2023-04-17T22:40:37.759Z,5.00
2023-04-17T22:43:04.378Z,5.15
2023-04-17T22:45:30.951Z,4.68
2023-04-17T22:47:57.636Z,4.65
2023-04-17T22:50:24.183Z,5.10
2023-04-17T22:52:50.875Z,4.53
2023-04-17T22:55:17.423Z,4.60
2023-04-17T22:57:44.000Z,4.65
2023-04-17T23:00:11.456Z,5.32
2023-04-17T23:02:38.313Z,5.03
2023-04-17T23:05:06.270Z,4.68
2023-04-17T23:07:32.866Z,4.72
2023-04-17T23:09:59.461Z,4.97
2023-04-17T23:12:26.041Z,5.40
2023-04-17T23:14:52.637Z,4.78
2023-04-17T23:17:19.293Z,5.03
2023-04-17T23:19:46.037Z,5.32
2023-04-17T23:22:12.709Z,5.15
2023-04-17T23:24:39.331Z,4.30
2023-04-17T23:27:05.952Z,4.43
2023-04-17T23:29:32.455Z,4.63
2023-04-17T23:31:58.986Z,4.38
2023-04-17T23:34:27.736Z,4.90
2023-04-17T23:36:54.225Z,4.25
2023-04-17T23:39:20.737Z,4.90
2023-04-17T23:41:47.727Z,5.57
2023-04-17T23:44:14.623Z,4.80
2023-04-17T23:46:41.456Z,5.10
2023-04-17T23:49:08.011Z,4.93
2023-04-17T23:51:34.884Z,4.10
2023-04-17T23:54:01.395Z,4.80
2023-04-17T23:56:29.854Z,4.90
2023-04-17T23:58:56.922Z,4.47
